Time;durP1;ratioP1;P1;durP2;ratioP2;P2;SDS_P1;SDS_P2;PMS_P1;PMS_P2;Temp;Humidity;BMP_temperature;BMP_pressure;BME280_temperature;BME280_humidity;BME280_pressure;Samples;Min_cycle;Max_cycle;Signal;HPM_P1;HPM_P2
2023/11/10 00:02:26;;;;;;;16.25;14.55;;;7.00;99.90;;;;;;7373569;19;20055;-83
2023/11/10 00:04:52;;;;;;;17.27;15.57;;;7.00;99.90;;;;;;7371363;19;20034;-83
2023/11/10 00:07:20;;;;;;;17.13;15.32;;;7.00;99.90;;;;;;7376632;19;20018;-83
2023/11/10 00:09:46;;;;;;;16.45;13.85;;;7.00;99.90;;;;;;7373203;19;20910;-83
2023/11/10 00:12:14;;;;;;;17.33;14.02;;;6.90;99.90;;;;;;7373057;19;20021;-83
2023/11/10 00:14:41;;;;;;;15.43;13.90;;;6.90;99.90;;;;;;7374358;19;20054;-83
2023/11/10 00:17:11;;;;;;;15.10;13.50;;;6.90;99.90;;;;;;7374784;19;20011;-83
2023/11/10 00:19:46;;;;;;;15.88;14.20;;;6.90;99.90;;;;;;7376475;19;20029;-83
2023/11/10 00:22:13;;;;;;;15.20;13.07;;;6.80;99.90;;;;;;7373563;19;20015;-83
2023/11/10 00:24:40;;;;;;;15.10;13.27;;;6.70;99.90;;;;;;7372207;19;20019;-83
2023/11/10 00:27:10;;;;;;;16.13;12.98;;;6.70;99.90;;;;;;7372549;19;20025;-83
2023/11/10 00:29:44;;;;;;;15.88;14.13;;;6.70;99.90;;;;;;7372417;19;20396;-83
2023/11/10 00:32:12;;;;;;;17.38;13.68;;;6.70;99.90;;;;;;7369187;19;20038;-85
2023/11/10 00:34:39;;;;;;;13.18;11.73;;;6.70;99.90;;;;;;7371172;19;20014;-83
2023/11/10 00:37:06;;;;;;;13.95;12.15;;;6.70;99.90;;;;;;7371269;19;20616;-83
2023/11/10 00:39:33;;;;;;;13.85;12.02;;;6.80;99.90;;;;;;7369056;19;20019;-83
2023/11/10 00:42:00;;;;;;;12.77;11.40;;;6.80;99.90;;;;;;7372130;19;20022;-83
2023/11/10 00:44:29;;;;;;;12.77;11.27;;;6.80;99.90;;;;;;7371135;19;20023;-83
2023/11/10 00:46:55;;;;;;;12.32;10.55;;;6.80;99.90;;;;;;7373884;19;20018;-83
2023/11/10 00:49:22;;;;;;;13.80;10.65;;;6.90;99.90;;;;;;7371532;19;20035;-83
2023/11/10 00:51:49;;;;;;;13.60;10.35;;;6.90;99.90;;;;;;7370650;19;20014;-83
2023/11/10 00:54:16;;;;;;;14.52;10.55;;;7.00;99.90;;;;;;7371129;19;20045;-83
2023/11/10 00:56:44;;;;;;;11.75;9.65;;;6.90;99.90;;;;;;7370528;19;20026;-83
2023/11/10 00:59:11;;;;;;;13.10;9.63;;;7.00;99.90;;;;;;7372067;19;20024;-82
2023/11/10 01:01:38;;;;;;;10.20;9.07;;;7.10;99.90;;;;;;7368590;19;20021;-83
2023/11/10 01:04:06;;;;;;;10.95;9.13;;;7.10;99.90;;;;;;7370764;19;20484;-83
2023/11/10 01:06:32;;;;;;;10.25;8.98;;;7.20;99.90;;;;;;7371054;19;20021;-83
2023/11/10 01:08:59;;;;;;;13.23;8.50;;;7.20;99.90;;;;;;7367413;19;20019;-83
2023/11/10 01:11:26;;;;;;;9.40;8.18;;;7.20;99.90;;;;;;7370181;19;20011;-83
2023/11/10 01:13:52;;;;;;;12.35;7.90;;;7.30;99.90;;;;;;7365788;19;20578;-83
2023/11/10 01:16:19;;;;;;;8.32;7.50;;;7.30;99.90;;;;;;7371638;19;20857;-83
2023/11/10 01:18:45;;;;;;;9.25;7.43;;;7.30;99.90;;;;;;7370139;19;20010;-83
2023/11/10 01:21:12;;;;;;;8.95;7.90;;;7.30;99.90;;;;;;7368462;19;20394;-83
2023/11/10 01:23:38;;;;;;;7.65;6.85;;;7.30;99.90;;;;;;7370997;19;20023;-83
2023/11/10 01:26:04;;;;;;;9.52;6.80;;;7.30;99.90;;;;;;7371342;19;20018;-83
2023/11/10 01:28:30;;;;;;;9.77;6.57;;;7.40;99.90;;;;;;7369331;19;20058;-83
2023/11/10 01:30:57;;;;;;;10.00;6.53;;;7.40;99.90;;;;;;7367029;19;20025;-83
2023/11/10 01:33:23;;;;;;;8.18;6.05;;;7.40;99.90;;;;;;7368500;19;20050;-84
2023/11/10 01:35:51;;;;;;;8.05;5.25;;;7.40;99.90;;;;;;7365890;19;20039;-83
2023/11/10 01:38:18;;;;;;;7.25;5.55;;;7.50;99.90;;;;;;7367893;19;20361;-83
2023/11/10 01:40:44;;;;;;;7.13;5.43;;;7.50;99.90;;;;;;7364642;19;20046;-83
2023/11/10 01:43:13;;;;;;;7.63;5.70;;;7.50;99.90;;;;;;7360256;19;20019;-83
2023/11/10 01:45:45;;;;;;;8.98;5.60;;;7.50;99.90;;;;;;7367979;19;20054;-83
2023/11/10 01:48:13;;;;;;;7.85;6.05;;;7.50;99.90;;;;;;7370574;19;20011;-82
2023/11/10 01:50:43;;;;;;;7.25;4.90;;;7.50;99.90;;;;;;7368172;19;20039;-83
2023/11/10 01:53:15;;;;;;;7.07;5.43;;;7.50;99.90;;;;;;7369580;19;20015;-83
2023/11/10 01:55:44;;;;;;;7.53;5.57;;;7.50;99.90;;;;;;7366574;19;20011;-83
2023/11/10 01:58:14;;;;;;;8.30;5.40;;;7.50;99.90;;;;;;7369093;19;20010;-83
2023/11/10 02:00:40;;;;;;;7.13;4.75;;;7.50;99.90;;;;;;7366089;19;20114;-82
2023/11/10 02:03:07;;;;;;;7.97;5.40;;;7.50;99.90;;;;;;7368858;19;20073;-83
2023/11/10 02:05:34;;;;;;;8.35;5.30;;;7.50;99.90;;;;;;7369649;19;20044;-83
2023/11/10 02:08:04;;;;;;;7.43;5.40;;;7.50;99.90;;;;;;7372968;19;20019;-83
2023/11/10 02:10:35;;;;;;;6.85;5.20;;;7.50;99.90;;;;;;7372148;19;20057;-83
2023/11/10 02:13:05;;;;;;;7.65;5.30;;;7.50;99.90;;;;;;7374610;19;20022;-83
2023/11/10 02:15:31;;;;;;;7.43;5.57;;;7.50;99.90;;;;;;7376904;19;20031;-82
2023/11/10 02:17:58;;;;;;;7.45;5.60;;;7.50;99.90;;;;;;7374045;19;20025;-83
2023/11/10 02:20:24;;;;;;;7.38;5.85;;;7.50;99.90;;;;;;7376270;19;20765;-83
2023/11/10 02:22:52;;;;;;;6.88;4.53;;;7.50;99.90;;;;;;7373929;19;20033;-83
2023/11/10 02:25:21;;;;;;;8.95;5.63;;;7.50;99.90;;;;;;7375165;19;20043;-83
2023/11/10 02:27:48;;;;;;;9.90;5.70;;;7.50;99.90;;;;;;7373088;19;20371;-83
2023/11/10 02:30:16;;;;;;;7.63;5.13;;;7.50;99.90;;;;;;7374725;19;20033;-83
2023/11/10 02:32:43;;;;;;;7.10;5.18;;;7.50;99.90;;;;;;7372196;19;20031;-83
2023/11/10 02:35:10;;;;;;;7.15;5.40;;;7.50;99.90;;;;;;7374260;19;20605;-83
2023/11/10 02:37:37;;;;;;;7.35;5.38;;;7.60;99.90;;;;;;7374087;19;20468;-83
2023/11/10 02:40:05;;;;;;;9.15;5.47;;;7.50;99.90;;;;;;7374139;19;20030;-83
2023/11/10 02:42:35;;;;;;;7.65;5.75;;;7.50;99.90;;;;;;7373684;19;20022;-83
2023/11/10 02:45:03;;;;;;;8.50;5.73;;;7.60;99.90;;;;;;7374740;19;20011;-84
2023/11/10 02:47:31;;;;;;;8.75;5.07;;;7.50;99.90;;;;;;7373730;19;20018;-83
2023/11/10 02:49:58;;;;;;;6.90;5.50;;;7.50;99.90;;;;;;7374900;19;20578;-83
2023/11/10 02:52:24;;;;;;;9.45;5.60;;;7.50;99.90;;;;;;7376324;19;20018;-83
2023/11/10 02:54:51;;;;;;;9.90;5.40;;;7.50;99.90;;;;;;7374993;19;21331;-83
2023/11/10 02:57:18;;;;;;;5.70;4.57;;;7.50;99.90;;;;;;7370058;19;20026;-84
2023/11/10 02:59:48;;;;;;;6.93;5.68;;;7.50;99.90;;;;;;7374891;19;20750;-83
2023/11/10 03:02:15;;;;;;;5.57;4.97;;;7.50;99.90;;;;;;7373640;19;20014;-83
2023/11/10 03:04:41;;;;;;;7.60;4.63;;;7.50;99.90;;;;;;7368974;19;20035;-82
2023/11/10 03:07:09;;;;;;;6.55;4.57;;;7.40;99.90;;;;;;7376254;19;20010;-83
2023/11/10 03:09:35;;;;;;;8.27;4.63;;;7.40;99.90;;;;;;7374029;19;20457;-83
2023/11/10 03:12:01;;;;;;;5.32;4.55;;;7.50;99.90;;;;;;7372950;19;20021;-83
2023/11/10 03:14:32;;;;;;;6.45;5.47;;;7.40;99.90;;;;;;7375144;19;20052;-83
2023/11/10 03:16:59;;;;;;;6.03;5.13;;;7.40;99.90;;;;;;7372055;19;20038;-83
2023/11/10 03:19:25;;;;;;;8.38;5.30;;;7.40;99.90;;;;;;7373521;19;20038;-83
2023/11/10 03:21:51;;;;;;;9.23;5.20;;;7.50;99.90;;;;;;7373899;19;21650;-84
2023/11/10 03:24:18;;;;;;;8.98;4.82;;;7.50;99.90;;;;;;7367091;19;20025;-84
2023/11/10 03:26:44;;;;;;;7.72;4.75;;;7.50;99.90;;;;;;7372498;19;20478;-84
2023/11/10 03:29:10;;;;;;;6.45;5.03;;;7.50;99.90;;;;;;7375129;19;20074;-84
2023/11/10 03:31:38;;;;;;;7.50;5.20;;;7.50;99.90;;;;;;7374294;19;20014;-83
2023/11/10 03:34:04;;;;;;;6.70;4.80;;;7.50;99.90;;;;;;7370334;19;20376;-83
2023/11/10 03:36:31;;;;;;;8.32;4.95;;;7.50;99.90;;;;;;7373438;19;20082;-84
2023/11/10 03:38:57;;;;;;;7.75;5.40;;;7.50;99.90;;;;;;7369020;19;20025;-83
2023/11/10 03:41:24;;;;;;;8.07;5.00;;;7.50;99.90;;;;;;7373584;19;20023;-83
2023/11/10 03:43:50;;;;;;;8.95;5.03;;;7.50;99.90;;;;;;7371097;19;20015;-83
2023/11/10 03:46:16;;;;;;;6.93;4.60;;;7.50;99.90;;;;;;7373593;19;20059;-84
2023/11/10 03:48:42;;;;;;;8.85;4.35;;;7.50;99.90;;;;;;7369960;19;20430;-83
2023/11/10 03:51:12;;;;;;;6.88;5.00;;;7.50;99.90;;;;;;7374069;19;20022;-84
2023/11/10 03:53:41;;;;;;;9.43;5.10;;;7.50;99.90;;;;;;7371080;19;20618;-84
2023/11/10 03:56:09;;;;;;;8.30;4.97;;;7.50;99.90;;;;;;7374488;19;20022;-83
2023/11/10 03:58:35;;;;;;;8.95;5.20;;;7.40;99.90;;;;;;7370311;19;20018;-84
2023/11/10 04:01:07;;;;;;;9.85;5.00;;;7.40;99.90;;;;;;7374374;19;20029;-83
2023/11/10 04:03:33;;;;;;;7.90;4.88;;;7.40;99.90;;;;;;7369400;19;20355;-83
2023/11/10 04:05:59;;;;;;;8.32;5.20;;;7.40;99.90;;;;;;7369755;19;20834;-83
2023/11/10 04:08:26;;;;;;;7.22;4.25;;;7.40;99.90;;;;;;7371399;19;20039;-84
2023/11/10 04:10:52;;;;;;;6.07;4.45;;;7.40;99.90;;;;;;7369935;19;20023;-83
2023/11/10 04:13:19;;;;;;;7.07;4.65;;;7.40;99.90;;;;;;7366796;19;20706;-83
2023/11/10 04:15:45;;;;;;;6.28;4.22;;;7.40;99.90;;;;;;7369975;19;20031;-83
2023/11/10 04:18:12;;;;;;;8.30;5.03;;;7.40;99.90;;;;;;7366575;19;20511;-83
2023/11/10 04:20:45;;;;;;;7.78;4.70;;;7.40;99.90;;;;;;7363543;19;20018;-84
2023/11/10 04:23:14;;;;;;;6.05;4.32;;;7.40;99.90;;;;;;7366085;19;20022;-84
2023/11/10 04:25:41;;;;;;;6.10;4.65;;;7.40;99.90;;;;;;7367747;19;20710;-83
2023/11/10 04:28:11;;;;;;;9.13;4.85;;;7.40;99.90;;;;;;7364199;19;22340;-83
2023/11/10 04:30:37;;;;;;;8.48;4.88;;;7.30;99.90;;;;;;7364951;19;20438;-84
2023/11/10 04:33:04;;;;;;;8.75;5.45;;;7.30;99.90;;;;;;7365524;19;20011;-84
2023/11/10 04:35:30;;;;;;;8.90;4.63;;;7.20;99.90;;;;;;7367939;19;20026;-83
2023/11/10 04:37:58;;;;;;;7.60;4.78;;;7.20;99.90;;;;;;7364132;19;20030;-84
2023/11/10 04:40:27;;;;;;;8.60;4.68;;;7.20;99.90;;;;;;7367068;19;20433;-83
2023/11/10 04:42:56;;;;;;;8.60;4.90;;;7.20;99.90;;;;;;7363290;19;20312;-84
2023/11/10 04:45:24;;;;;;;7.78;5.38;;;7.20;99.90;;;;;;7364618;19;20437;-83
2023/11/10 04:47:53;;;;;;;7.32;4.80;;;7.30;99.90;;;;;;7363943;19;20479;-84
2023/11/10 04:50:22;;;;;;;8.23;5.22;;;7.30;99.90;;;;;;7360459;19;20014;-84
2023/11/10 04:52:51;;;;;;;6.38;5.03;;;7.30;99.90;;;;;;7363940;19;20020;-83
2023/11/10 04:55:18;;;;;;;7.55;5.30;;;7.40;99.90;;;;;;7366235;19;20014;-83
2023/11/10 04:57:45;;;;;;;8.82;5.03;;;7.40;99.90;;;;;;7363141;19;20011;-84
2023/11/10 05:00:13;;;;;;;7.25;4.80;;;7.40;99.90;;;;;;7364929;19;20021;-84
2023/11/10 05:02:41;;;;;;;6.60;4.80;;;7.40;99.90;;;;;;7366084;19;20851;-83
2023/11/10 05:05:12;;;;;;;8.35;4.57;;;7.40;99.90;;;;;;7364791;19;20017;-84
2023/11/10 05:07:40;;;;;;;7.47;4.70;;;7.40;99.90;;;;;;7365650;19;20014;-84
2023/11/10 05:10:07;;;;;;;6.70;4.47;;;7.40;99.90;;;;;;7367835;19;20015;-84
2023/11/10 05:12:37;;;;;;;7.78;4.85;;;7.40;99.90;;;;;;7366475;19;20018;-83
2023/11/10 05:15:05;;;;;;;8.82;5.10;;;7.50;99.90;;;;;;7365902;19;20010;-84
2023/11/10 05:17:39;;;;;;;8.15;4.95;;;7.50;99.90;;;;;;7364891;19;20902;-84
2023/11/10 05:20:09;;;;;;;7.38;5.25;;;7.50;99.90;;;;;;7367081;19;20022;-84
2023/11/10 05:22:36;;;;;;;6.55;5.07;;;7.50;99.90;;;;;;7366683;19;20495;-84
2023/11/10 05:25:13;;;;;;;8.45;5.60;;;7.50;99.90;;;;;;7358115;19;20077;-83
2023/11/10 05:27:40;;;;;;;9.02;4.93;;;7.50;99.90;;;;;;7367541;19;20416;-83
2023/11/10 05:30:07;;;;;;;10.48;5.50;;;7.50;99.90;;;;;;7365381;19;20027;-82
2023/11/10 05:32:36;;;;;;;7.03;5.10;;;7.50;99.90;;;;;;7367086;19;20018;-83
2023/11/10 05:35:04;;;;;;;8.23;5.28;;;7.50;99.90;;;;;;7367213;19;20015;-83
2023/11/10 05:37:31;;;;;;;8.20;4.78;;;7.50;99.90;;;;;;7365503;19;20103;-84
2023/11/10 05:39:57;;;;;;;5.80;4.88;;;7.50;99.90;;;;;;7355911;19;20590;-83
2023/11/10 05:42:23;;;;;;;8.32;5.18;;;7.60;99.90;;;;;;7370290;19;20033;-84
2023/11/10 05:44:50;;;;;;;9.48;6.13;;;7.60;99.90;;;;;;7372685;19;20014;-83
2023/11/10 05:47:17;;;;;;;9.45;6.43;;;7.60;99.90;;;;;;7372769;19;20019;-83
2023/11/10 05:49:44;;;;;;;7.07;6.35;;;7.50;99.90;;;;;;7373020;19;20767;-84
2023/11/10 05:52:11;;;;;;;8.73;6.00;;;7.50;99.90;;;;;;7373976;19;20519;-84
2023/11/10 05:54:39;;;;;;;11.23;6.35;;;7.50;99.90;;;;;;7371872;19;20082;-84
2023/11/10 05:57:06;;;;;;;8.80;6.20;;;7.50;99.90;;;;;;7371189;19;20007;-84
2023/11/10 05:59:37;;;;;;;11.98;6.72;;;7.50;99.90;;;;;;7374570;19;20576;-85
2023/11/10 06:02:04;;;;;;;10.75;6.93;;;7.40;99.90;;;;;;7367187;19;20019;-84
2023/11/10 06:04:30;;;;;;;11.68;7.22;;;7.50;99.90;;;;;;7372931;19;20061;-84
2023/11/10 06:06:56;;;;;;;10.95;6.82;;;7.40;99.90;;;;;;7370651;19;20030;-84
2023/11/10 06:09:23;;;;;;;8.15;6.35;;;7.40;99.90;;;;;;7369307;19;20018;-78
2023/11/10 06:11:50;;;;;;;8.32;7.20;;;7.30;99.90;;;;;;7367798;19;20396;-77
2023/11/10 06:14:17;;;;;;;9.77;7.43;;;7.30;99.90;;;;;;7374337;19;20035;-78
2023/11/10 06:16:47;;;;;;;8.98;7.05;;;7.20;99.90;;;;;;7366110;19;20052;-78
2023/11/10 06:19:15;;;;;;;11.25;7.05;;;7.30;99.90;;;;;;7367575;19;20043;-77
2023/11/10 06:21:42;;;;;;;11.07;8.00;;;7.20;99.90;;;;;;7369270;19;20101;-77
2023/11/10 06:24:08;;;;;;;11.75;7.10;;;7.20;99.90;;;;;;7370741;19;20027;-77
2023/11/10 06:26:38;;;;;;;10.52;7.53;;;7.20;99.90;;;;;;7369831;19;20854;-77
2023/11/10 06:29:05;;;;;;;10.18;7.72;;;7.10;99.90;;;;;;7369655;19;20014;-77
2023/11/10 06:31:32;;;;;;;13.25;8.07;;;7.10;99.90;;;;;;7370890;19;20023;-77
2023/11/10 06:33:58;;;;;;;13.23;7.72;;;7.10;99.90;;;;;;7368928;19;20070;-77
2023/11/10 06:36:24;;;;;;;12.45;7.22;;;7.20;99.90;;;;;;7372196;19;20689;-77
2023/11/10 06:38:50;;;;;;;11.63;7.97;;;7.20;99.90;;;;;;7368454;19;20018;-77
2023/11/10 06:41:17;;;;;;;11.68;8.35;;;7.20;99.90;;;;;;7368020;19;20026;-77
2023/11/10 06:43:45;;;;;;;11.35;8.88;;;7.30;99.90;;;;;;7372545;19;20019;-79
2023/11/10 06:46:20;;;;;;;15.35;9.52;;;7.30;99.90;;;;;;7368639;19;20022;-78
2023/11/10 06:48:47;;;;;;;13.75;9.32;;;7.30;99.90;;;;;;7368325;19;20102;-78
2023/11/10 06:51:13;;;;;;;13.43;9.38;;;7.20;99.90;;;;;;7370503;19;20494;-77
2023/11/10 06:53:39;;;;;;;13.45;9.32;;;7.20;99.90;;;;;;7370568;19;20046;-78
2023/11/10 06:56:06;;;;;;;11.88;9.63;;;7.20;99.90;;;;;;7369574;19;20015;-78
2023/11/10 06:58:33;;;;;;;13.73;9.38;;;7.20;99.90;;;;;;7370967;19;20022;-78
2023/11/10 07:01:00;;;;;;;13.63;9.98;;;7.20;99.90;;;;;;7368980;19;20618;-78
2023/11/10 07:03:27;;;;;;;13.40;9.80;;;7.20;99.90;;;;;;7372503;19;20030;-79
2023/11/10 07:05:53;;;;;;;15.48;9.68;;;7.20;99.90;;;;;;7369264;19;20023;-78
2023/11/10 07:08:20;;;;;;;13.85;8.98;;;7.20;99.90;;;;;;7372233;19;20074;-78
2023/11/10 07:10:53;;;;;;;13.02;10.23;;;7.20;99.90;;;;;;7367497;19;20029;-78
2023/11/10 07:13:19;;;;;;;11.45;9.77;;;7.20;99.90;;;;;;7369228;19;20018;-78
2023/11/10 07:15:46;;;;;;;16.25;10.75;;;7.30;99.90;;;;;;7365959;19;20030;-78
2023/11/10 07:18:12;;;;;;;13.52;10.43;;;7.30;99.90;;;;;;7367710;19;20049;-78
2023/11/10 07:20:43;;;;;;;13.77;10.68;;;7.30;99.90;;;;;;7367296;19;20022;-78
2023/11/10 07:23:09;;;;;;;13.65;10.57;;;7.30;99.90;;;;;;7369807;19;20022;-78
2023/11/10 07:25:35;;;;;;;13.13;10.90;;;7.40;99.90;;;;;;7363940;19;20022;-77
2023/11/10 07:28:03;;;;;;;12.43;10.13;;;7.40;99.90;;;;;;7364290;19;20033;-78
2023/11/10 07:30:29;;;;;;;17.13;11.02;;;7.40;99.90;;;;;;7368200;19;20038;-78
2023/11/10 07:32:56;;;;;;;19.10;11.65;;;7.40;99.90;;;;;;7371294;19;20050;-78
2023/11/10 07:35:22;;;;;;;14.93;9.77;;;7.40;99.90;;;;;;7371473;19;20416;-80
2023/11/10 07:37:50;;;;;;;12.40;10.15;;;7.50;99.90;;;;;;7370263;19;20639;-78
2023/11/10 07:40:20;;;;;;;11.93;9.55;;;7.50;99.90;;;;;;7366862;19;20061;-78
2023/11/10 07:42:47;;;;;;;13.32;9.15;;;7.60;99.90;;;;;;7372639;19;20022;-78
2023/11/10 07:45:15;;;;;;;15.48;10.00;;;7.50;99.90;;;;;;7368516;19;21207;-79
2023/11/10 07:47:45;;;;;;;13.38;10.10;;;7.50;99.90;;;;;;7370433;19;21860;-79
2023/11/10 07:50:14;;;;;;;14.32;9.68;;;7.60;99.90;;;;;;7368149;19;20574;-79
2023/11/10 07:52:42;;;;;;;14.70;9.85;;;7.60;99.90;;;;;;7367390;19;20022;-78
2023/11/10 07:55:09;;;;;;;14.57;9.57;;;7.60;99.90;;;;;;7366169;19;20014;-79
2023/11/10 07:57:36;;;;;;;23.15;16.70;;;7.80;99.90;;;;;;7371295;19;20026;-78
2023/11/10 08:00:07;;;;;;;23.05;17.98;;;7.80;99.90;;;;;;7363680;19;20519;-78
2023/11/10 08:02:41;;;;;;;35.60;26.63;;;7.90;99.90;;;;;;7367535;19;20094;-77
2023/11/10 08:05:08;;;;;;;123.57;98.40;;;7.90;99.90;;;;;;7363664;19;20535;-77
2023/11/10 08:07:34;;;;;;;91.50;72.05;;;8.00;99.90;;;;;;7370289;19;20095;-78
2023/11/10 08:10:04;;;;;;;70.90;51.95;;;8.10;99.90;;;;;;7362539;19;20018;-78
2023/11/10 08:12:32;;;;;;;62.20;48.85;;;8.10;99.90;;;;;;7369672;19;20018;-79
2023/11/10 08:14:58;;;;;;;17.45;13.25;;;8.20;99.90;;;;;;7364805;19;20123;-80
2023/11/10 08:17:25;;;;;;;19.35;15.18;;;8.20;99.90;;;;;;7366483;19;20018;-79
2023/11/10 08:19:51;;;;;;;16.33;11.95;;;8.30;99.90;;;;;;7365653;19;20029;-79
2023/11/10 08:22:17;;;;;;;12.00;9.77;;;8.30;99.90;;;;;;7363751;19;20014;-79
2023/11/10 08:24:44;;;;;;;15.68;9.93;;;8.40;99.90;;;;;;7361129;19;20123;-79
2023/11/10 08:27:11;;;;;;;15.10;11.68;;;8.40;99.90;;;;;;7364987;19;20880;-77
2023/11/10 08:29:38;;;;;;;47.22;38.42;;;8.50;99.90;;;;;;7364692;19;20595;-79
2023/11/10 08:32:04;;;;;;;13.60;10.02;;;8.60;99.90;;;;;;7362503;19;20395;-79
2023/11/10 08:34:31;;;;;;;45.60;35.25;;;8.50;99.90;;;;;;7367622;19;20119;-79
2023/11/10 08:36:58;;;;;;;16.90;11.00;;;8.50;99.90;;;;;;7362713;19;20019;-78
2023/11/10 08:39:24;;;;;;;24.95;19.55;;;8.50;99.90;;;;;;7365621;19;20078;-77
2023/11/10 08:41:51;;;;;;;11.10;7.70;;;8.50;99.90;;;;;;7360144;19;20022;-79
2023/11/10 08:44:18;;;;;;;10.88;7.60;;;8.50;99.90;;;;;;7360827;19;20022;-79
2023/11/10 08:46:45;;;;;;;15.02;10.07;;;8.60;99.90;;;;;;7369028;19;20589;-78
2023/11/10 08:49:12;;;;;;;17.25;9.18;;;8.60;99.90;;;;;;7366608;19;20892;-79
2023/11/10 08:51:40;;;;;;;17.05;8.55;;;8.70;99.90;;;;;;7369369;19;20023;-79
2023/11/10 08:54:06;;;;;;;14.10;9.05;;;8.70;99.90;;;;;;7368318;19;20019;-79
2023/11/10 08:56:32;;;;;;;10.15;5.32;;;8.70;99.90;;;;;;7369457;19;20022;-79
2023/11/10 08:58:59;;;;;;;7.75;5.10;;;8.70;99.90;;;;;;7365848;19;20025;-78
2023/11/10 09:01:26;;;;;;;11.65;5.68;;;8.70;99.90;;;;;;7367259;19;20026;-78
2023/11/10 09:03:53;;;;;;;10.48;4.95;;;8.80;99.90;;;;;;7366093;19;21339;-79
2023/11/10 09:06:20;;;;;;;12.55;6.65;;;8.80;99.90;;;;;;7369709;19;20064;-78
2023/11/10 09:08:46;;;;;;;11.65;4.78;;;8.80;99.90;;;;;;7366461;19;20605;-78
2023/11/10 09:11:12;;;;;;;7.82;4.85;;;8.70;99.90;;;;;;7365556;19;20022;-78
2023/11/10 09:13:40;;;;;;;74.72;63.92;;;8.80;99.90;;;;;;7367926;19;20050;-79
2023/11/10 09:16:06;;;;;;;26.60;17.80;;;8.80;99.90;;;;;;7367564;19;20098;-78
2023/11/10 09:18:32;;;;;;;62.42;49.33;;;8.80;99.90;;;;;;7365011;19;20022;-78
2023/11/10 09:20:59;;;;;;;22.38;11.68;;;8.80;99.90;;;;;;7366127;19;20039;-79
2023/11/10 09:23:28;;;;;;;22.23;10.88;;;8.80;99.90;;;;;;7367175;19;20101;-77
2023/11/10 09:25:56;;;;;;;9.15;4.07;;;8.70;99.90;;;;;;7366708;19;20021;-78
2023/11/10 09:28:27;;;;;;;11.30;4.82;;;8.60;99.90;;;;;;7366895;19;20356;-76
2023/11/10 09:30:53;;;;;;;9.07;4.35;;;8.70;99.90;;;;;;7366888;19;20014;-78
2023/11/10 09:33:23;;;;;;;6.65;4.28;;;8.70;99.90;;;;;;7368651;19;20046;-77
2023/11/10 09:35:50;;;;;;;8.82;3.78;;;8.90;99.90;;;;;;7365712;19;20018;-76
2023/11/10 09:38:18;;;;;;;8.20;3.78;;;9.20;99.90;;;;;;7367075;19;20017;-79
2023/11/10 09:40:46;;;;;;;8.07;3.55;;;9.30;99.90;;;;;;7365250;19;20039;-77
2023/11/10 09:43:16;;;;;;;10.45;4.85;;;9.50;99.90;;;;;;7369243;19;20033;-78
2023/11/10 09:45:54;;;;;;;9.73;5.63;;;9.60;99.90;;;;;;7363104;19;20014;-78
2023/11/10 09:48:22;;;;;;;10.25;3.25;;;9.60;99.90;;;;;;7371592;19;20018;-81
2023/11/10 09:50:50;;;;;;;9.98;3.72;;;9.50;99.90;;;;;;7367986;19;20023;-80
2023/11/10 09:53:18;;;;;;;10.63;5.57;;;9.30;99.90;;;;;;7367315;19;20070;-79
2023/11/10 09:55:46;;;;;;;10.32;4.70;;;9.30;99.90;;;;;;7369038;19;20026;-81
2023/11/10 09:58:14;;;;;;;9.63;3.13;;;9.20;99.90;;;;;;7371697;19;20029;-80
2023/11/10 10:00:42;;;;;;;7.55;3.33;;;9.10;99.90;;;;;;7370209;19;20035;-80
2023/11/10 10:03:12;;;;;;;8.23;3.55;;;9.00;99.90;;;;;;7367220;19;20022;-81
2023/11/10 10:05:40;;;;;;;102.63;84.68;;;9.00;99.90;;;;;;7361283;19;20054;-82
2023/11/10 10:08:07;;;;;;;29.05;19.40;;;9.00;99.90;;;;;;7362642;19;20028;-81
2023/11/10 10:10:37;;;;;;;17.27;11.20;;;9.00;99.90;;;;;;7367531;19;20077;-82
2023/11/10 10:13:08;;;;;;;13.38;8.68;;;9.00;99.90;;;;;;7370000;19;20018;-83
2023/11/10 10:15:35;;;;;;;10.38;4.20;;;9.00;99.90;;;;;;7365249;19;20018;-82
2023/11/10 10:18:07;;;;;;;19.02;9.90;;;9.00;99.90;;;;;;7364671;19;20029;-82
2023/11/10 10:20:33;;;;;;;;;;;9.00;99.90;;;;;;7369005;19;20021;-81
2023/11/10 10:23:00;;;;;;;8.65;3.55;;;8.90;99.90;;;;;;7366142;19;19929;-82
2023/11/10 10:25:27;;;;;;;5.60;2.33;;;8.90;99.90;;;;;;7369241;19;20021;-82
2023/11/10 10:27:53;;;;;;;7.43;3.53;;;8.90;99.90;;;;;;7369008;19;20454;-84
2023/11/10 10:30:21;;;;;;;12.13;5.70;;;9.00;99.90;;;;;;7377782;19;20032;-80
2023/11/10 10:32:49;;;;;;;11.20;4.18;;;9.00;99.90;;;;;;7374232;19;20025;-83
2023/11/10 10:35:15;;;;;;;9.13;3.78;;;8.90;99.90;;;;;;7374902;19;20055;-81
2023/11/10 10:37:45;;;;;;;10.15;5.22;;;8.90;99.90;;;;;;7373632;19;20014;-83
2023/11/10 10:40:13;;;;;;;6.10;3.38;;;9.00;99.90;;;;;;7374788;19;20610;-83
2023/11/10 10:42:43;;;;;;;20.73;14.18;;;9.00;99.90;;;;;;7370469;19;20019;-84
2023/11/10 10:45:13;;;;;;;12.60;7.72;;;9.00;99.90;;;;;;7371822;19;20028;-81
2023/11/10 10:47:41;;;;;;;64.53;48.60;;;9.00;99.90;;;;;;7372190;19;20466;-80
2023/11/10 10:50:10;;;;;;;38.70;26.77;;;9.00;99.90;;;;;;7369322;19;20627;-81
2023/11/10 10:52:37;;;;;;;14.68;7.75;;;9.10;99.90;;;;;;7370900;19;20010;-81
2023/11/10 10:55:09;;;;;;;11.90;5.70;;;9.10;99.90;;;;;;7370683;19;20484;-81
2023/11/10 10:57:38;;;;;;;9.50;5.18;;;9.10;99.90;;;;;;7377415;19;20912;-81
2023/11/10 11:00:09;;;;;;;10.40;6.47;;;9.10;99.90;;;;;;7373622;19;20641;-80
2023/11/10 11:02:41;;;;;;;6.75;3.67;;;9.00;99.90;;;;;;7374173;19;20022;-81
2023/11/10 11:05:45;;;;;;;7.65;3.60;;;9.10;99.90;;;;;;7373909;19;20018;-80
2023/11/10 11:08:33;;;;;;;4.57;2.72;;;9.00;99.90;;;;;;7376076;19;20053;-80
2023/11/10 11:11:38;;;;;;;6.20;3.05;;;9.00;99.90;;;;;;7373219;19;20602;-81
2023/11/10 11:14:25;;;;;;;9.10;3.03;;;9.10;99.90;;;;;;7377658;19;20026;-80
2023/11/10 11:17:10;;;;;;;9.50;3.15;;;9.00;99.90;;;;;;7371902;19;20019;-80
2023/11/10 11:19:38;;;;;;;8.70;4.50;;;9.10;99.90;;;;;;7376746;19;20020;-81
2023/11/10 11:22:07;;;;;;;10.77;3.63;;;9.10;99.90;;;;;;7375942;19;20019;-82
2023/11/10 11:24:34;;;;;;;9.93;3.15;;;9.10;99.90;;;;;;7373287;19;20011;-81
2023/11/10 11:27:06;;;;;;;15.60;8.90;;;9.10;99.90;;;;;;7376001;19;20035;-81
2023/11/10 11:29:38;;;;;;;20.05;11.02;;;9.20;99.90;;;;;;7376409;19;20017;-82
2023/11/10 11:32:08;;;;;;;18.08;10.63;;;9.30;99.90;;;;;;7373898;19;20074;-81
2023/11/10 11:34:38;;;;;;;47.92;34.75;;;9.40;99.90;;;;;;7375679;19;20022;-81
2023/11/10 11:37:06;;;;;;;40.65;26.80;;;9.40;99.90;;;;;;7373760;19;20018;-80
2023/11/10 11:39:33;;;;;;;7.15;2.88;;;9.40;99.90;;;;;;7369703;19;20035;-81
2023/11/10 11:42:07;;;;;;;14.02;9.35;;;9.40;99.90;;;;;;7374049;19;20070;-80
2023/11/10 11:44:35;;;;;;;9.93;4.07;;;9.30;99.90;;;;;;7372950;19;20026;-81
2023/11/10 11:47:31;;;;;;;12.35;6.38;;;9.20;99.90;;;;;;7377186;19;20018;-80
2023/11/10 11:49:58;;;;;;;12.65;4.70;;;9.20;99.90;;;;;;7372776;19;20025;-80
2023/11/10 11:52:25;;;;;;;10.10;3.83;;;9.10;99.90;;;;;;7372318;19;20015;-80
2023/11/10 11:54:54;;;;;;;9.07;3.58;;;9.00;99.90;;;;;;7375020;19;20021;-79
2023/11/10 11:57:22;;;;;;;8.82;3.00;;;8.90;99.90;;;;;;7377447;19;20010;-80
2023/11/10 11:59:48;;;;;;;13.30;3.97;;;8.90;99.90;;;;;;7372167;19;20039;-80
2023/11/10 12:02:15;;;;;;;9.70;3.17;;;8.90;99.90;;;;;;7378394;19;20127;-80
2023/11/10 12:04:45;;;;;;;8.55;2.95;;;8.80;99.90;;;;;;7376439;19;20019;-81
2023/11/10 12:07:12;;;;;;;9.63;3.67;;;8.70;99.90;;;;;;7380586;19;20019;-81
2023/11/10 12:09:39;;;;;;;7.78;2.72;;;8.70;99.90;;;;;;7363305;19;20372;-81
2023/11/10 12:12:06;;;;;;;12.25;3.45;;;8.60;99.90;;;;;;7380861;19;20494;-81
2023/11/10 12:14:33;;;;;;;10.40;3.25;;;8.60;99.90;;;;;;7373751;19;20107;-81
2023/11/10 12:17:01;;;;;;;9.57;3.58;;;8.60;99.90;;;;;;7379439;19;20018;-81
2023/11/10 12:19:27;;;;;;;10.30;3.88;;;8.60;99.90;;;;;;7381730;19;20022;-81
2023/11/10 12:21:55;;;;;;;14.43;3.40;;;8.70;99.90;;;;;;7381878;19;20014;-81
2023/11/10 12:24:30;;;;;;;9.52;3.38;;;8.60;99.90;;;;;;7382772;19;20475;-81
2023/11/10 12:26:59;;;;;;;9.27;4.00;;;8.60;99.90;;;;;;7383923;19;20022;-81
2023/11/10 12:29:29;;;;;;;64.15;54.25;;;8.60;99.90;;;;;;7381575;19;20530;-82
2023/11/10 12:31:55;;;;;;;21.48;11.05;;;8.60;99.90;;;;;;7382623;19;20082;-81
2023/11/10 12:34:25;;;;;;;31.40;21.23;;;8.60;99.90;;;;;;7383594;19;20035;-81
2023/11/10 12:36:51;;;;;;;37.42;28.30;;;8.60;99.90;;;;;;7384267;19;20014;-81
2023/11/10 12:39:18;;;;;;;13.88;8.20;;;8.60;99.90;;;;;;7382880;19;20015;-81
2023/11/10 12:41:45;;;;;;;9.68;4.82;;;8.60;99.90;;;;;;7386679;19;20015;-81
2023/11/10 12:44:15;;;;;;;10.43;4.80;;;8.60;99.90;;;;;;7383730;19;20021;-81
2023/11/10 12:47:08;;;;;;;11.60;7.95;;;8.60;99.90;;;;;;7385889;19;20022;-81
2023/11/10 12:49:36;;;;;;;10.65;4.82;;;8.70;99.90;;;;;;7382480;19;20659;-81
2023/11/10 12:52:09;;;;;;;11.05;5.70;;;8.60;99.90;;;;;;7380421;19;20018;-81
2023/11/10 12:54:40;;;;;;;8.95;4.57;;;8.50;99.90;;;;;;7383993;19;20428;-82
2023/11/10 12:57:08;;;;;;;136.77;106.60;;;8.50;99.90;;;;;;7386295;19;20015;-83